sensor_id;sensor_type;location;lat;lon;timestamp;P1;durP1;ratioP1;P2;durP2;ratioP2
51800;SDS011;37855;53.204;6.568;2023-02-28T00:01:18;11.98;;;2.80;;
51800;SDS011;37855;53.204;6.568;2023-02-28T00:03:44;6.65;;;2.60;;
51800;SDS011;37855;53.204;6.568;2023-02-28T00:06:10;6.43;;;2.70;;
51800;SDS011;37855;53.204;6.568;2023-02-28T00:08:36;10.73;;;3.33;;
51800;SDS011;37855;53.204;6.568;2023-02-28T00:11:03;9.88;;;3.63;;
51800;SDS011;37855;53.204;6.568;2023-02-28T00:13:36;14.70;;;3.43;;
51800;SDS011;37855;53.204;6.568;2023-02-28T00:16:05;11.35;;;3.58;;
51800;SDS011;37855;53.204;6.568;2023-02-28T00:18:33;8.75;;;2.90;;
51800;SDS011;37855;53.204;6.568;2023-02-28T00:21:03;8.55;;;2.72;;
51800;SDS011;37855;53.204;6.568;2023-02-28T00:23:32;8.52;;;2.95;;
51800;SDS011;37855;53.204;6.568;2023-02-28T00:25:58;9.30;;;2.77;;
51800;SDS011;37855;53.204;6.568;2023-02-28T00:28:24;11.30;;;3.28;;
51800;SDS011;37855;53.204;6.568;2023-02-28T00:30:50;9.45;;;2.90;;
51800;SDS011;37855;53.204;6.568;2023-02-28T00:33:16;10.70;;;3.03;;
51800;SDS011;37855;53.204;6.568;2023-02-28T00:35:45;9.13;;;2.95;;
51800;SDS011;37855;53.204;6.568;2023-02-28T00:38:11;11.13;;;3.08;;
51800;SDS011;37855;53.204;6.568;2023-02-28T00:40:38;8.60;;;3.45;;
51800;SDS011;37855;53.204;6.568;2023-02-28T00:43:06;9.20;;;2.90;;
51800;SDS011;37855;53.204;6.568;2023-02-28T00:45:32;9.85;;;3.05;;
51800;SDS011;37855;53.204;6.568;2023-02-28T00:47:58;11.38;;;3.30;;
51800;SDS011;37855;53.204;6.568;2023-02-28T00:50:25;8.83;;;2.80;;
51800;SDS011;37855;53.204;6.568;2023-02-28T00:52:53;8.60;;;2.95;;
51800;SDS011;37855;53.204;6.568;2023-02-28T00:55:20;8.60;;;3.10;;
51800;SDS011;37855;53.204;6.568;2023-02-28T00:57:45;10.17;;;3.37;;
51800;SDS011;37855;53.204;6.568;2023-02-28T01:00:11;11.90;;;3.22;;
51800;SDS011;37855;53.204;6.568;2023-02-28T01:02:37;11.55;;;3.33;;
51800;SDS011;37855;53.204;6.568;2023-02-28T01:05:03;10.70;;;3.20;;
51800;SDS011;37855;53.204;6.568;2023-02-28T01:07:29;9.98;;;3.30;;
51800;SDS011;37855;53.204;6.568;2023-02-28T01:09:55;9.05;;;2.75;;
51800;SDS011;37855;53.204;6.568;2023-02-28T01:12:23;10.47;;;2.70;;
51800;SDS011;37855;53.204;6.568;2023-02-28T01:14:52;8.95;;;2.55;;
51800;SDS011;37855;53.204;6.568;2023-02-28T01:17:35;8.10;;;3.30;;
51800;SDS011;37855;53.204;6.568;2023-02-28T01:20:13;7.60;;;2.88;;
51800;SDS011;37855;53.204;6.568;2023-02-28T01:22:58;9.82;;;2.60;;
51800;SDS011;37855;53.204;6.568;2023-02-28T01:25:33;8.95;;;2.60;;
51800;SDS011;37855;53.204;6.568;2023-02-28T01:28:00;9.32;;;2.88;;
51800;SDS011;37855;53.204;6.568;2023-02-28T01:30:48;8.87;;;3.20;;
51800;SDS011;37855;53.204;6.568;2023-02-28T01:33:36;8.45;;;3.10;;
51800;SDS011;37855;53.204;6.568;2023-02-28T01:36:14;9.75;;;2.92;;
51800;SDS011;37855;53.204;6.568;2023-02-28T01:38:48;7.38;;;2.85;;
51800;SDS011;37855;53.204;6.568;2023-02-28T01:41:19;10.40;;;3.45;;
51800;SDS011;37855;53.204;6.568;2023-02-28T01:47:07;7.07;;;2.80;;
51800;SDS011;37855;53.204;6.568;2023-02-28T01:49:42;9.57;;;2.92;;
51800;SDS011;37855;53.204;6.568;2023-02-28T01:52:11;11.63;;;3.08;;
51800;SDS011;37855;53.204;6.568;2023-02-28T01:54:43;7.27;;;2.77;;
51800;SDS011;37855;53.204;6.568;2023-02-28T01:57:16;9.55;;;2.85;;
51800;SDS011;37855;53.204;6.568;2023-02-28T01:59:47;13.32;;;3.10;;
51800;SDS011;37855;53.204;6.568;2023-02-28T02:02:17;9.75;;;3.10;;
51800;SDS011;37855;53.204;6.568;2023-02-28T02:04:50;7.25;;;2.67;;
51800;SDS011;37855;53.204;6.568;2023-02-28T02:07:23;8.73;;;2.83;;
51800;SDS011;37855;53.204;6.568;2023-02-28T02:09:59;9.80;;;2.97;;
51800;SDS011;37855;53.204;6.568;2023-02-28T02:15:35;8.77;;;3.10;;
51800;SDS011;37855;53.204;6.568;2023-02-28T02:18:05;7.00;;;2.60;;
51800;SDS011;37855;53.204;6.568;2023-02-28T02:21:03;8.77;;;2.70;;
51800;SDS011;37855;53.204;6.568;2023-02-28T02:37:30;6.78;;;2.10;;
51800;SDS011;37855;53.204;6.568;2023-02-28T02:42:45;5.25;;;2.08;;
51800;SDS011;37855;53.204;6.568;2023-02-28T02:45:53;6.80;;;2.38;;
51800;SDS011;37855;53.204;6.568;2023-02-28T02:48:24;8.37;;;2.53;;
51800;SDS011;37855;53.204;6.568;2023-02-28T02:51:13;10.52;;;3.50;;
51800;SDS011;37855;53.204;6.568;2023-02-28T02:53:43;12.00;;;4.10;;
51800;SDS011;37855;53.204;6.568;2023-02-28T02:56:24;8.93;;;3.40;;
51800;SDS011;37855;53.204;6.568;2023-02-28T02:58:54;6.93;;;3.53;;
51800;SDS011;37855;53.204;6.568;2023-02-28T03:01:27;8.97;;;3.60;;
51800;SDS011;37855;53.204;6.568;2023-02-28T03:04:09;11.80;;;3.95;;
51800;SDS011;37855;53.204;6.568;2023-02-28T03:06:39;9.75;;;4.35;;
51800;SDS011;37855;53.204;6.568;2023-02-28T03:09:08;11.48;;;3.58;;
51800;SDS011;37855;53.204;6.568;2023-02-28T03:11:34;10.27;;;4.20;;
51800;SDS011;37855;53.204;6.568;2023-02-28T03:20:07;8.32;;;3.60;;
51800;SDS011;37855;53.204;6.568;2023-02-28T03:25:37;9.60;;;4.00;;
51800;SDS011;37855;53.204;6.568;2023-02-28T03:30:52;9.10;;;4.90;;
51800;SDS011;37855;53.204;6.568;2023-02-28T03:33:26;7.90;;;4.63;;
51800;SDS011;37855;53.204;6.568;2023-02-28T03:35:59;8.98;;;5.50;;
51800;SDS011;37855;53.204;6.568;2023-02-28T03:38:48;8.60;;;5.57;;
51800;SDS011;37855;53.204;6.568;2023-02-28T03:41:19;11.40;;;6.03;;
51800;SDS011;37855;53.204;6.568;2023-02-28T03:43:55;8.95;;;5.55;;
51800;SDS011;37855;53.204;6.568;2023-02-28T03:46:30;9.38;;;6.03;;
51800;SDS011;37855;53.204;6.568;2023-02-28T03:49:12;9.90;;;6.15;;
51800;SDS011;37855;53.204;6.568;2023-02-28T03:51:47;11.07;;;6.50;;
51800;SDS011;37855;53.204;6.568;2023-02-28T03:54:21;15.02;;;7.13;;
51800;SDS011;37855;53.204;6.568;2023-02-28T03:56:59;9.45;;;5.88;;
51800;SDS011;37855;53.204;6.568;2023-02-28T03:59:37;9.95;;;5.38;;
51800;SDS011;37855;53.204;6.568;2023-02-28T04:02:06;10.35;;;5.55;;
51800;SDS011;37855;53.204;6.568;2023-02-28T04:04:33;9.97;;;5.20;;
51800;SDS011;37855;53.204;6.568;2023-02-28T04:07:05;9.75;;;5.43;;
51800;SDS011;37855;53.204;6.568;2023-02-28T04:09:33;11.48;;;5.63;;
51800;SDS011;37855;53.204;6.568;2023-02-28T04:11:59;10.57;;;5.72;;
51800;SDS011;37855;53.204;6.568;2023-02-28T04:14:26;9.77;;;5.20;;
51800;SDS011;37855;53.204;6.568;2023-02-28T04:16:52;11.90;;;5.63;;
51800;SDS011;37855;53.204;6.568;2023-02-28T04:19:18;12.23;;;6.40;;
51800;SDS011;37855;53.204;6.568;2023-02-28T04:21:44;10.05;;;5.68;;
51800;SDS011;37855;53.204;6.568;2023-02-28T04:24:13;11.33;;;5.43;;
51800;SDS011;37855;53.204;6.568;2023-02-28T04:26:48;9.80;;;5.50;;
51800;SDS011;37855;53.204;6.568;2023-02-28T04:29:19;9.75;;;5.10;;
51800;SDS011;37855;53.204;6.568;2023-02-28T04:31:48;8.23;;;4.90;;
51800;SDS011;37855;53.204;6.568;2023-02-28T04:34:14;9.87;;;5.13;;
51800;SDS011;37855;53.204;6.568;2023-02-28T04:36:39;9.20;;;5.00;;
51800;SDS011;37855;53.204;6.568;2023-02-28T04:39:05;8.70;;;4.50;;
51800;SDS011;37855;53.204;6.568;2023-02-28T04:41:31;7.77;;;4.43;;
51800;SDS011;37855;53.204;6.568;2023-02-28T04:43:56;7.63;;;4.50;;
51800;SDS011;37855;53.204;6.568;2023-02-28T04:46:22;8.60;;;4.40;;
51800;SDS011;37855;53.204;6.568;2023-02-28T04:48:48;7.80;;;4.03;;
51800;SDS011;37855;53.204;6.568;2023-02-28T04:51:15;7.30;;;4.37;;
51800;SDS011;37855;53.204;6.568;2023-02-28T04:53:42;7.65;;;4.45;;
51800;SDS011;37855;53.204;6.568;2023-02-28T04:56:08;7.00;;;4.18;;
51800;SDS011;37855;53.204;6.568;2023-02-28T04:58:37;8.05;;;4.80;;
51800;SDS011;37855;53.204;6.568;2023-02-28T05:01:04;10.93;;;4.37;;
51800;SDS011;37855;53.204;6.568;2023-02-28T05:03:42;10.77;;;4.85;;
51800;SDS011;37855;53.204;6.568;2023-02-28T05:06:09;7.45;;;4.20;;
51800;SDS011;37855;53.204;6.568;2023-02-28T05:08:36;8.75;;;4.57;;
51800;SDS011;37855;53.204;6.568;2023-02-28T05:11:05;8.67;;;4.43;;
51800;SDS011;37855;53.204;6.568;2023-02-28T05:13:33;11.63;;;4.85;;
51800;SDS011;37855;53.204;6.568;2023-02-28T05:16:00;7.97;;;4.70;;
51800;SDS011;37855;53.204;6.568;2023-02-28T05:18:26;9.67;;;5.00;;
51800;SDS011;37855;53.204;6.568;2023-02-28T05:20:52;9.68;;;4.95;;
51800;SDS011;37855;53.204;6.568;2023-02-28T05:23:17;9.97;;;4.90;;
51800;SDS011;37855;53.204;6.568;2023-02-28T05:25:46;10.95;;;5.63;;
51800;SDS011;37855;53.204;6.568;2023-02-28T05:28:12;9.05;;;4.82;;
51800;SDS011;37855;53.204;6.568;2023-02-28T05:30:37;9.13;;;5.53;;
51800;SDS011;37855;53.204;6.568;2023-02-28T05:33:03;12.15;;;5.32;;
51800;SDS011;37855;53.204;6.568;2023-02-28T05:35:28;13.87;;;6.30;;
51800;SDS011;37855;53.204;6.568;2023-02-28T05:37:54;9.70;;;4.50;;
51800;SDS011;37855;53.204;6.568;2023-02-28T05:40:20;11.15;;;5.40;;
51800;SDS011;37855;53.204;6.568;2023-02-28T05:42:46;9.77;;;5.60;;
51800;SDS011;37855;53.204;6.568;2023-02-28T05:45:12;7.78;;;5.10;;
51800;SDS011;37855;53.204;6.568;2023-02-28T05:47:38;10.70;;;5.68;;
51800;SDS011;37855;53.204;6.568;2023-02-28T05:50:04;12.18;;;6.15;;
51800;SDS011;37855;53.204;6.568;2023-02-28T05:52:31;9.48;;;5.72;;
51800;SDS011;37855;53.204;6.568;2023-02-28T05:57:31;12.97;;;5.70;;
51800;SDS011;37855;53.204;6.568;2023-02-28T06:00:06;10.60;;;5.83;;
51800;SDS011;37855;53.204;6.568;2023-02-28T06:02:38;12.02;;;6.00;;
51800;SDS011;37855;53.204;6.568;2023-02-28T06:05:06;11.57;;;6.78;;
51800;SDS011;37855;53.204;6.568;2023-02-28T06:07:37;11.88;;;5.97;;
51800;SDS011;37855;53.204;6.568;2023-02-28T06:10:03;12.07;;;6.50;;
51800;SDS011;37855;53.204;6.568;2023-02-28T06:12:29;14.40;;;7.30;;
51800;SDS011;37855;53.204;6.568;2023-02-28T06:14:55;12.43;;;6.83;;
51800;SDS011;37855;53.204;6.568;2023-02-28T06:17:20;12.80;;;6.45;;
51800;SDS011;37855;53.204;6.568;2023-02-28T06:19:46;11.53;;;7.37;;
51800;SDS011;37855;53.204;6.568;2023-02-28T06:22:13;14.20;;;7.07;;
51800;SDS011;37855;53.204;6.568;2023-02-28T06:24:41;11.32;;;7.60;;
51800;SDS011;37855;53.204;6.568;2023-02-28T06:27:07;13.33;;;6.90;;
51800;SDS011;37855;53.204;6.568;2023-02-28T06:29:34;12.20;;;6.80;;
51800;SDS011;37855;53.204;6.568;2023-02-28T06:32:00;11.85;;;6.63;;
51800;SDS011;37855;53.204;6.568;2023-02-28T06:34:26;9.75;;;6.00;;
51800;SDS011;37855;53.204;6.568;2023-02-28T06:36:53;11.13;;;5.97;;
51800;SDS011;37855;53.204;6.568;2023-02-28T06:39:18;10.48;;;6.32;;
51800;SDS011;37855;53.204;6.568;2023-02-28T06:41:44;11.02;;;5.90;;
51800;SDS011;37855;53.204;6.568;2023-02-28T06:44:13;11.40;;;6.43;;
51800;SDS011;37855;53.204;6.568;2023-02-28T06:46:41;11.63;;;6.80;;
51800;SDS011;37855;53.204;6.568;2023-02-28T06:49:08;11.20;;;6.18;;
51800;SDS011;37855;53.204;6.568;2023-02-28T06:51:35;13.75;;;6.82;;
51800;SDS011;37855;53.204;6.568;2023-02-28T06:54:02;11.50;;;6.95;;
51800;SDS011;37855;53.204;6.568;2023-02-28T06:56:28;11.48;;;6.72;;
51800;SDS011;37855;53.204;6.568;2023-02-28T06:58:54;13.10;;;7.00;;
51800;SDS011;37855;53.204;6.568;2023-02-28T07:01:21;15.13;;;6.60;;
51800;SDS011;37855;53.204;6.568;2023-02-28T07:03:50;15.40;;;7.57;;
51800;SDS011;37855;53.204;6.568;2023-02-28T07:06:20;16.40;;;7.13;;
51800;SDS011;37855;53.204;6.568;2023-02-28T07:08:53;12.67;;;6.93;;
51800;SDS011;37855;53.204;6.568;2023-02-28T07:11:23;13.15;;;7.03;;
51800;SDS011;37855;53.204;6.568;2023-02-28T07:13:52;14.13;;;8.10;;
51800;SDS011;37855;53.204;6.568;2023-02-28T07:16:22;12.57;;;7.57;;
51800;SDS011;37855;53.204;6.568;2023-02-28T07:18:51;13.07;;;8.20;;
51800;SDS011;37855;53.204;6.568;2023-02-28T07:21:18;13.43;;;7.63;;
51800;SDS011;37855;53.204;6.568;2023-02-28T07:23:50;14.15;;;7.72;;
51800;SDS011;37855;53.204;6.568;2023-02-28T07:26:16;13.07;;;7.78;;
51800;SDS011;37855;53.204;6.568;2023-02-28T07:28:44;13.88;;;7.57;;
51800;SDS011;37855;53.204;6.568;2023-02-28T07:31:11;12.82;;;7.97;;
51800;SDS011;37855;53.204;6.568;2023-02-28T07:33:42;14.37;;;8.20;;
51800;SDS011;37855;53.204;6.568;2023-02-28T07:36:15;12.90;;;7.85;;
51800;SDS011;37855;53.204;6.568;2023-02-28T07:38:44;15.60;;;8.40;;
51800;SDS011;37855;53.204;6.568;2023-02-28T07:41:13;15.07;;;8.27;;
51800;SDS011;37855;53.204;6.568;2023-02-28T07:43:43;13.48;;;7.95;;
51800;SDS011;37855;53.204;6.568;2023-02-28T07:46:10;12.90;;;7.67;;
51800;SDS011;37855;53.204;6.568;2023-02-28T07:48:39;12.65;;;7.40;;
51800;SDS011;37855;53.204;6.568;2023-02-28T07:51:06;12.98;;;7.72;;
51800;SDS011;37855;53.204;6.568;2023-02-28T07:53:33;15.02;;;7.57;;
51800;SDS011;37855;53.204;6.568;2023-02-28T07:55:59;12.57;;;7.68;;
51800;SDS011;37855;53.204;6.568;2023-02-28T07:58:26;11.43;;;7.13;;
51800;SDS011;37855;53.204;6.568;2023-02-28T08:00:53;12.57;;;7.40;;
51800;SDS011;37855;53.204;6.568;2023-02-28T08:03:19;12.20;;;7.63;;
51800;SDS011;37855;53.204;6.568;2023-02-28T08:05:48;13.50;;;7.53;;
51800;SDS011;37855;53.204;6.568;2023-02-28T08:10:39;13.33;;;7.40;;
51800;SDS011;37855;53.204;6.568;2023-02-28T08:13:06;14.32;;;7.60;;
51800;SDS011;37855;53.204;6.568;2023-02-28T08:15:31;12.02;;;7.93;;
51800;SDS011;37855;53.204;6.568;2023-02-28T08:17:57;13.93;;;7.20;;
51800;SDS011;37855;53.204;6.568;2023-02-28T08:20:24;14.52;;;7.80;;
51800;SDS011;37855;53.204;6.568;2023-02-28T08:22:50;12.50;;;7.30;;
51800;SDS011;37855;53.204;6.568;2023-02-28T08:25:16;15.63;;;8.15;;
51800;SDS011;37855;53.204;6.568;2023-02-28T08:27:43;15.53;;;7.90;;
51800;SDS011;37855;53.204;6.568;2023-02-28T08:30:11;13.00;;;7.93;;
51800;SDS011;37855;53.204;6.568;2023-02-28T08:32:37;16.52;;;8.15;;
51800;SDS011;37855;53.204;6.568;2023-02-28T08:35:03;14.15;;;8.18;;
51800;SDS011;37855;53.204;6.568;2023-02-28T08:37:29;13.47;;;8.03;;
51800;SDS011;37855;53.204;6.568;2023-02-28T08:39:55;11.88;;;7.53;;
51800;SDS011;37855;53.204;6.568;2023-02-28T08:42:21;14.23;;;7.80;;
51800;SDS011;37855;53.204;6.568;2023-02-28T08:44:47;12.25;;;7.47;;
51800;SDS011;37855;53.204;6.568;2023-02-28T08:47:12;12.95;;;8.18;;
51800;SDS011;37855;53.204;6.568;2023-02-28T08:49:38;14.87;;;8.40;;
51800;SDS011;37855;53.204;6.568;2023-02-28T08:52:04;13.47;;;7.77;;
51800;SDS011;37855;53.204;6.568;2023-02-28T08:54:29;12.50;;;7.80;;
51800;SDS011;37855;53.204;6.568;2023-02-28T08:56:58;13.88;;;7.93;;
51800;SDS011;37855;53.204;6.568;2023-02-28T08:59:30;15.40;;;8.07;;
51800;SDS011;37855;53.204;6.568;2023-02-28T09:02:13;13.63;;;8.68;;
51800;SDS011;37855;53.204;6.568;2023-02-28T09:04:45;16.75;;;8.45;;
51800;SDS011;37855;53.204;6.568;2023-02-28T09:07:16;13.52;;;8.80;;
51800;SDS011;37855;53.204;6.568;2023-02-28T09:09:42;13.18;;;8.05;;
51800;SDS011;37855;53.204;6.568;2023-02-28T09:12:22;14.00;;;7.60;;
51800;SDS011;37855;53.204;6.568;2023-02-28T09:14:50;14.48;;;7.72;;
51800;SDS011;37855;53.204;6.568;2023-02-28T09:17:16;14.55;;;8.10;;
51800;SDS011;37855;53.204;6.568;2023-02-28T09:19:47;13.95;;;7.90;;
51800;SDS011;37855;53.204;6.568;2023-02-28T09:22:14;13.90;;;8.00;;
51800;SDS011;37855;53.204;6.568;2023-02-28T09:24:41;11.90;;;7.30;;
51800;SDS011;37855;53.204;6.568;2023-02-28T09:27:06;12.88;;;7.63;;
51800;SDS011;37855;53.204;6.568;2023-02-28T09:29:33;14.25;;;7.97;;
51800;SDS011;37855;53.204;6.568;2023-02-28T09:31:59;11.63;;;7.80;;
51800;SDS011;37855;53.204;6.568;2023-02-28T09:34:26;14.32;;;8.25;;
51800;SDS011;37855;53.204;6.568;2023-02-28T09:36:55;15.30;;;7.95;;
51800;SDS011;37855;53.204;6.568;2023-02-28T09:39:27;20.13;;;7.80;;
51800;SDS011;37855;53.204;6.568;2023-02-28T09:41:54;12.80;;;7.85;;
51800;SDS011;37855;53.204;6.568;2023-02-28T09:44:37;13.77;;;7.90;;
51800;SDS011;37855;53.204;6.568;2023-02-28T09:47:14;13.57;;;7.75;;
51800;SDS011;37855;53.204;6.568;2023-02-28T09:49:42;15.60;;;8.43;;
51800;SDS011;37855;53.204;6.568;2023-02-28T09:52:18;11.98;;;8.00;;
51800;SDS011;37855;53.204;6.568;2023-02-28T09:54:48;15.30;;;8.10;;
51800;SDS011;37855;53.204;6.568;2023-02-28T09:57:19;14.00;;;7.90;;
51800;SDS011;37855;53.204;6.568;2023-02-28T10:04:56;14.85;;;8.73;;
51800;SDS011;37855;53.204;6.568;2023-02-28T10:13:04;12.95;;;7.70;;
51800;SDS011;37855;53.204;6.568;2023-02-28T10:15:52;13.73;;;7.38;;
51800;SDS011;37855;53.204;6.568;2023-02-28T10:18:23;13.90;;;7.95;;
51800;SDS011;37855;53.204;6.568;2023-02-28T10:20:52;13.90;;;7.47;;
51800;SDS011;37855;53.204;6.568;2023-02-28T10:23:28;13.93;;;7.85;;
51800;SDS011;37855;53.204;6.568;2023-02-28T10:26:04;11.45;;;7.35;;
51800;SDS011;37855;53.204;6.568;2023-02-28T10:28:36;13.32;;;7.18;;
51800;SDS011;37855;53.204;6.568;2023-02-28T10:31:03;12.52;;;7.50;;
51800;SDS011;37855;53.204;6.568;2023-02-28T10:33:33;12.13;;;7.17;;
51800;SDS011;37855;53.204;6.568;2023-02-28T10:36:03;13.07;;;7.15;;
51800;SDS011;37855;53.204;6.568;2023-02-28T10:38:37;10.90;;;7.47;;
51800;SDS011;37855;53.204;6.568;2023-02-28T10:41:05;12.43;;;7.50;;
51800;SDS011;37855;53.204;6.568;2023-02-28T10:43:32;12.18;;;7.47;;
51800;SDS011;37855;53.204;6.568;2023-02-28T10:48:41;11.75;;;6.07;;
51800;SDS011;37855;53.204;6.568;2023-02-28T10:51:24;12.10;;;6.15;;
51800;SDS011;37855;53.204;6.568;2023-02-28T10:53:52;13.55;;;6.60;;
51800;SDS011;37855;53.204;6.568;2023-02-28T10:56:22;10.63;;;6.40;;
51800;SDS011;37855;53.204;6.568;2023-02-28T11:07:01;9.98;;;6.10;;
51800;SDS011;37855;53.204;6.568;2023-02-28T11:09:36;9.48;;;5.80;;
51800;SDS011;37855;53.204;6.568;2023-02-28T11:12:05;10.20;;;5.53;;
51800;SDS011;37855;53.204;6.568;2023-02-28T11:14:41;10.75;;;5.30;;
51800;SDS011;37855;53.204;6.568;2023-02-28T11:17:17;7.57;;;4.50;;
51800;SDS011;37855;53.204;6.568;2023-02-28T11:19:47;9.38;;;4.45;;
51800;SDS011;37855;53.204;6.568;2023-02-28T11:22:20;8.65;;;4.72;;
51800;SDS011;37855;53.204;6.568;2023-02-28T11:24:52;7.60;;;4.30;;
51800;SDS011;37855;53.204;6.568;2023-02-28T11:28:03;9.38;;;4.70;;
51800;SDS011;37855;53.204;6.568;2023-02-28T11:30:40;11.18;;;5.05;;
51800;SDS011;37855;53.204;6.568;2023-02-28T11:35:51;9.00;;;4.65;;
51800;SDS011;37855;53.204;6.568;2023-02-28T11:38:19;9.93;;;4.40;;
51800;SDS011;37855;53.204;6.568;2023-02-28T11:46:14;10.32;;;5.35;;
51800;SDS011;37855;53.204;6.568;2023-02-28T11:48:58;9.43;;;4.97;;
51800;SDS011;37855;53.204;6.568;2023-02-28T11:51:54;7.70;;;4.82;;
51800;SDS011;37855;53.204;6.568;2023-02-28T11:55:05;9.82;;;5.15;;
51800;SDS011;37855;53.204;6.568;2023-02-28T12:08:41;12.27;;;4.90;;
51800;SDS011;37855;53.204;6.568;2023-02-28T12:14:30;10.02;;;5.03;;
51800;SDS011;37855;53.204;6.568;2023-02-28T12:26:00;11.35;;;4.57;;
51800;SDS011;37855;53.204;6.568;2023-02-28T12:28:33;9.50;;;4.88;;
51800;SDS011;37855;53.204;6.568;2023-02-28T12:31:08;8.43;;;4.30;;
51800;SDS011;37855;53.204;6.568;2023-02-28T12:33:40;8.55;;;4.60;;
51800;SDS011;37855;53.204;6.568;2023-02-28T12:36:11;7.88;;;4.90;;
51800;SDS011;37855;53.204;6.568;2023-02-28T12:41:45;9.57;;;5.72;;
51800;SDS011;37855;53.204;6.568;2023-02-28T12:47:15;7.53;;;4.47;;
51800;SDS011;37855;53.204;6.568;2023-02-28T12:49:45;9.65;;;5.50;;
51800;SDS011;37855;53.204;6.568;2023-02-28T12:52:24;11.18;;;5.28;;
51800;SDS011;37855;53.204;6.568;2023-02-28T13:00:33;8.82;;;4.60;;
51800;SDS011;37855;53.204;6.568;2023-02-28T13:08:47;9.65;;;4.82;;
51800;SDS011;37855;53.204;6.568;2023-02-28T13:11:49;10.70;;;4.83;;
51800;SDS011;37855;53.204;6.568;2023-02-28T13:22:39;10.23;;;4.90;;
51800;SDS011;37855;53.204;6.568;2023-02-28T13:27:58;15.88;;;5.32;;
51800;SDS011;37855;53.204;6.568;2023-02-28T13:33:27;10.27;;;5.55;;
51800;SDS011;37855;53.204;6.568;2023-02-28T13:36:05;8.57;;;5.28;;
51800;SDS011;37855;53.204;6.568;2023-02-28T13:38:48;9.90;;;5.07;;
51800;SDS011;37855;53.204;6.568;2023-02-28T13:44:18;10.38;;;5.40;;
51800;SDS011;37855;53.204;6.568;2023-02-28T14:00:28;10.43;;;4.70;;
51800;SDS011;37855;53.204;6.568;2023-02-28T14:06:34;10.18;;;5.25;;
51800;SDS011;37855;53.204;6.568;2023-02-28T14:11:30;10.70;;;5.28;;
51800;SDS011;37855;53.204;6.568;2023-02-28T14:13:58;11.13;;;5.70;;
51800;SDS011;37855;53.204;6.568;2023-02-28T14:16:25;10.05;;;5.30;;
51800;SDS011;37855;53.204;6.568;2023-02-28T14:18:58;8.48;;;5.40;;
51800;SDS011;37855;53.204;6.568;2023-02-28T14:21:47;9.98;;;5.35;;
51800;SDS011;37855;53.204;6.568;2023-02-28T14:27:00;9.53;;;5.77;;
51800;SDS011;37855;53.204;6.568;2023-02-28T14:37:46;9.13;;;5.00;;
51800;SDS011;37855;53.204;6.568;2023-02-28T14:40:17;10.10;;;5.25;;
51800;SDS011;37855;53.204;6.568;2023-02-28T14:42:58;9.80;;;5.30;;
51800;SDS011;37855;53.204;6.568;2023-02-28T14:45:30;9.40;;;5.93;;
51800;SDS011;37855;53.204;6.568;2023-02-28T14:48:00;11.07;;;6.37;;
51800;SDS011;37855;53.204;6.568;2023-02-28T14:50:35;10.43;;;5.72;;
51800;SDS011;37855;53.204;6.568;2023-02-28T14:53:02;9.35;;;5.97;;
51800;SDS011;37855;53.204;6.568;2023-02-28T14:55:34;9.75;;;5.80;;
51800;SDS011;37855;53.204;6.568;2023-02-28T14:58:02;9.60;;;5.80;;
51800;SDS011;37855;53.204;6.568;2023-02-28T15:00:34;10.00;;;6.03;;
51800;SDS011;37855;53.204;6.568;2023-02-28T15:03:17;11.82;;;6.05;;
51800;SDS011;37855;53.204;6.568;2023-02-28T15:05:51;10.52;;;5.97;;
51800;SDS011;37855;53.204;6.568;2023-02-28T15:08:28;9.75;;;5.25;;
51800;SDS011;37855;53.204;6.568;2023-02-28T15:13:48;9.93;;;5.80;;
51800;SDS011;37855;53.204;6.568;2023-02-28T15:37:00;10.23;;;5.72;;
51800;SDS011;37855;53.204;6.568;2023-02-28T15:39:31;10.90;;;5.90;;
51800;SDS011;37855;53.204;6.568;2023-02-28T15:42:12;9.40;;;5.37;;
51800;SDS011;37855;53.204;6.568;2023-02-28T15:44:46;8.75;;;5.70;;
51800;SDS011;37855;53.204;6.568;2023-02-28T15:47:16;9.48;;;6.13;;
51800;SDS011;37855;53.204;6.568;2023-02-28T15:49:57;10.48;;;5.90;;
51800;SDS011;37855;53.204;6.568;2023-02-28T15:52:28;11.88;;;6.15;;
51800;SDS011;37855;53.204;6.568;2023-02-28T15:55:24;11.30;;;6.47;;
51800;SDS011;37855;53.204;6.568;2023-02-28T15:57:53;8.68;;;6.22;;
51800;SDS011;37855;53.204;6.568;2023-02-28T16:03:48;13.82;;;6.90;;
51800;SDS011;37855;53.204;6.568;2023-02-28T16:08:41;10.13;;;6.40;;
51800;SDS011;37855;53.204;6.568;2023-02-28T16:11:10;10.18;;;6.25;;
51800;SDS011;37855;53.204;6.568;2023-02-28T16:13:37;10.25;;;6.55;;
51800;SDS011;37855;53.204;6.568;2023-02-28T16:16:04;12.50;;;6.57;;
51800;SDS011;37855;53.204;6.568;2023-02-28T16:18:30;10.95;;;6.65;;
51800;SDS011;37855;53.204;6.568;2023-02-28T16:20:59;10.10;;;6.40;;
51800;SDS011;37855;53.204;6.568;2023-02-28T16:23:34;12.77;;;6.87;;
51800;SDS011;37855;53.204;6.568;2023-02-28T16:26:12;8.93;;;6.32;;
51800;SDS011;37855;53.204;6.568;2023-02-28T16:29:35;15.63;;;6.15;;
51800;SDS011;37855;53.204;6.568;2023-02-28T16:32:05;14.30;;;6.90;;
51800;SDS011;37855;53.204;6.568;2023-02-28T16:34:31;12.45;;;6.47;;
51800;SDS011;37855;53.204;6.568;2023-02-28T16:36:57;12.00;;;6.70;;
51800;SDS011;37855;53.204;6.568;2023-02-28T16:42:19;10.63;;;6.32;;
51800;SDS011;37855;53.204;6.568;2023-02-28T16:45:03;9.85;;;6.90;;
51800;SDS011;37855;53.204;6.568;2023-02-28T16:47:29;11.43;;;6.67;;
51800;SDS011;37855;53.204;6.568;2023-02-28T16:49:56;12.27;;;6.75;;
51800;SDS011;37855;53.204;6.568;2023-02-28T16:52:22;11.15;;;6.72;;
51800;SDS011;37855;53.204;6.568;2023-02-28T16:55:00;10.67;;;6.37;;
51800;SDS011;37855;53.204;6.568;2023-02-28T16:57:25;11.18;;;7.20;;
51800;SDS011;37855;53.204;6.568;2023-02-28T16:59:51;13.07;;;7.10;;
51800;SDS011;37855;53.204;6.568;2023-02-28T17:02:17;13.05;;;7.10;;
51800;SDS011;37855;53.204;6.568;2023-02-28T17:04:46;13.82;;;7.30;;
51800;SDS011;37855;53.204;6.568;2023-02-28T17:07:15;10.63;;;6.50;;
51800;SDS011;37855;53.204;6.568;2023-02-28T17:09:42;14.35;;;7.22;;
51800;SDS011;37855;53.204;6.568;2023-02-28T17:12:09;11.23;;;7.07;;
51800;SDS011;37855;53.204;6.568;2023-02-28T17:14:36;12.68;;;7.03;;
51800;SDS011;37855;53.204;6.568;2023-02-28T17:17:03;14.25;;;7.70;;
51800;SDS011;37855;53.204;6.568;2023-02-28T17:19:30;11.65;;;7.72;;
51800;SDS011;37855;53.204;6.568;2023-02-28T17:21:58;11.85;;;7.82;;
51800;SDS011;37855;53.204;6.568;2023-02-28T17:24:24;11.53;;;7.20;;
51800;SDS011;37855;53.204;6.568;2023-02-28T17:26:49;13.93;;;7.95;;
51800;SDS011;37855;53.204;6.568;2023-02-28T17:29:19;12.07;;;7.10;;
51800;SDS011;37855;53.204;6.568;2023-02-28T17:31:46;11.50;;;7.07;;
51800;SDS011;37855;53.204;6.568;2023-02-28T17:34:12;11.43;;;7.43;;
51800;SDS011;37855;53.204;6.568;2023-02-28T17:36:43;15.43;;;8.17;;
51800;SDS011;37855;53.204;6.568;2023-02-28T17:39:10;11.35;;;7.60;;
51800;SDS011;37855;53.204;6.568;2023-02-28T17:41:39;14.02;;;8.13;;
51800;SDS011;37855;53.204;6.568;2023-02-28T17:44:08;14.30;;;8.90;;
51800;SDS011;37855;53.204;6.568;2023-02-28T17:46:34;15.52;;;9.15;;
51800;SDS011;37855;53.204;6.568;2023-02-28T17:49:01;14.23;;;10.27;;
51800;SDS011;37855;53.204;6.568;2023-02-28T17:51:26;14.45;;;9.90;;
51800;SDS011;37855;53.204;6.568;2023-02-28T17:53:52;14.57;;;9.47;;
51800;SDS011;37855;53.204;6.568;2023-02-28T17:56:22;14.77;;;9.90;;
51800;SDS011;37855;53.204;6.568;2023-02-28T17:58:49;13.57;;;8.57;;
51800;SDS011;37855;53.204;6.568;2023-02-28T18:01:17;12.60;;;8.47;;
51800;SDS011;37855;53.204;6.568;2023-02-28T18:03:45;12.60;;;9.07;;
51800;SDS011;37855;53.204;6.568;2023-02-28T18:08:56;16.05;;;8.82;;
51800;SDS011;37855;53.204;6.568;2023-02-28T18:11:22;15.20;;;9.37;;